CWLY 032100Z AUTO VRB02KT 9SM FEW230 05/M04 A2977 RMK SLP090
From batch tds/metars/production/2023/2/3/h21_m26_metars.cache.csv.gz
Observed at (about 12 hours ago)
Identifier CWLY
CWLY 031700Z AUTO 00000KT 9SM FEW170 M01/M05 A2988 RMK SLP128
From batch tds/metars/production/2023/2/3/h17_m20_metars.cache.csv.gz
Observed at (about 16 hours ago)
Identifier CWLY
CWLY 031600Z AUTO 00000KT 9SM CLR M01/M05 A2990 RMK SLP137
From batch tds/metars/production/2023/2/3/h16_m26_metars.cache.csv.gz
Observed at (about 17 hours ago)
Identifier CWLY
CWLY 031500Z AUTO 00000KT 9SM OVC150 M01/M05 A2991 RMK SLP141
From batch tds/metars/production/2023/2/3/h15_m26_metars.cache.csv.gz
Observed at (about 18 hours ago)
Identifier CWLY
talk